sensor_id;sensor_type;location;lat;lon;timestamp;temperature;humidity
46816;DHT22;32787;53.316;8.670;2024-01-27T00:00:55;4.20;92.00
46816;DHT22;32787;53.316;8.670;2024-01-27T00:03:21;4.10;92.00
46816;DHT22;32787;53.316;8.670;2024-01-27T00:05:46;4.20;92.20
46816;DHT22;32787;53.316;8.670;2024-01-27T00:08:12;4.20;92.10
46816;DHT22;32787;53.316;8.670;2024-01-27T00:10:38;4.10;92.10
46816;DHT22;32787;53.316;8.670;2024-01-27T00:13:03;4.10;92.20
46816;DHT22;32787;53.316;8.670;2024-01-27T00:15:29;4.00;92.30
46816;DHT22;32787;53.316;8.670;2024-01-27T00:17:55;4.10;92.40
46816;DHT22;32787;53.316;8.670;2024-01-27T00:20:20;4.10;92.30
46816;DHT22;32787;53.316;8.670;2024-01-27T00:22:46;3.90;92.20
46816;DHT22;32787;53.316;8.670;2024-01-27T00:25:12;3.90;92.30
46816;DHT22;32787;53.316;8.670;2024-01-27T00:27:38;4.00;92.70
46816;DHT22;32787;53.316;8.670;2024-01-27T00:30:04;4.00;92.50
46816;DHT22;32787;53.316;8.670;2024-01-27T00:32:30;4.00;92.40
46816;DHT22;32787;53.316;8.670;2024-01-27T00:34:56;4.10;92.50
46816;DHT22;32787;53.316;8.670;2024-01-27T00:37:21;4.00;92.30
46816;DHT22;32787;53.316;8.670;2024-01-27T00:39:47;4.00;92.30
46816;DHT22;32787;53.316;8.670;2024-01-27T00:42:13;4.00;92.30
46816;DHT22;32787;53.316;8.670;2024-01-27T00:44:39;4.00;92.20
46816;DHT22;32787;53.316;8.670;2024-01-27T00:47:04;3.90;92.30
46816;DHT22;32787;53.316;8.670;2024-01-27T00:49:30;3.90;92.30
46816;DHT22;32787;53.316;8.670;2024-01-27T00:51:56;3.90;92.40
46816;DHT22;32787;53.316;8.670;2024-01-27T00:54:21;3.90;92.40
46816;DHT22;32787;53.316;8.670;2024-01-27T00:56:47;3.90;92.40
46816;DHT22;32787;53.316;8.670;2024-01-27T00:59:13;3.90;92.40
46816;DHT22;32787;53.316;8.670;2024-01-27T01:01:39;3.90;92.40
46816;DHT22;32787;53.316;8.670;2024-01-27T01:04:06;3.90;92.30
46816;DHT22;32787;53.316;8.670;2024-01-27T01:06:32;3.90;92.50
46816;DHT22;32787;53.316;8.670;2024-01-27T01:08:58;3.90;92.50
46816;DHT22;32787;53.316;8.670;2024-01-27T01:11:24;3.90;92.50
46816;DHT22;32787;53.316;8.670;2024-01-27T01:13:49;3.80;92.40
46816;DHT22;32787;53.316;8.670;2024-01-27T01:16:15;3.90;92.50
46816;DHT22;32787;53.316;8.670;2024-01-27T01:18:41;3.90;92.40
46816;DHT22;32787;53.316;8.670;2024-01-27T01:21:06;3.90;92.60
46816;DHT22;32787;53.316;8.670;2024-01-27T01:23:32;3.90;92.40
46816;DHT22;32787;53.316;8.670;2024-01-27T01:25:58;3.90;92.40
46816;DHT22;32787;53.316;8.670;2024-01-27T01:28:23;3.80;92.50
46816;DHT22;32787;53.316;8.670;2024-01-27T01:30:49;3.80;92.50
46816;DHT22;32787;53.316;8.670;2024-01-27T01:33:15;3.80;92.70
46816;DHT22;32787;53.316;8.670;2024-01-27T01:35:41;3.90;92.70
46816;DHT22;32787;53.316;8.670;2024-01-27T01:38:07;3.90;92.50
46816;DHT22;32787;53.316;8.670;2024-01-27T01:40:32;3.80;92.60
46816;DHT22;32787;53.316;8.670;2024-01-27T01:42:59;3.80;92.80
46816;DHT22;32787;53.316;8.670;2024-01-27T01:45:24;3.80;92.70
46816;DHT22;32787;53.316;8.670;2024-01-27T01:47:50;3.80;92.80
46816;DHT22;32787;53.316;8.670;2024-01-27T01:50:17;3.80;92.80
46816;DHT22;32787;53.316;8.670;2024-01-27T01:52:43;3.80;92.60
46816;DHT22;32787;53.316;8.670;2024-01-27T01:55:09;3.80;92.70
46816;DHT22;32787;53.316;8.670;2024-01-27T01:57:35;3.70;92.80
46816;DHT22;32787;53.316;8.670;2024-01-27T02:00:01;3.70;92.80
46816;DHT22;32787;53.316;8.670;2024-01-27T02:02:27;3.70;93.00
46816;DHT22;32787;53.316;8.670;2024-01-27T02:04:52;3.70;92.90
46816;DHT22;32787;53.316;8.670;2024-01-27T02:07:18;3.70;93.00
46816;DHT22;32787;53.316;8.670;2024-01-27T02:09:44;3.70;93.00
46816;DHT22;32787;53.316;8.670;2024-01-27T02:12:09;3.60;92.80
46816;DHT22;32787;53.316;8.670;2024-01-27T02:14:35;3.60;93.00
46816;DHT22;32787;53.316;8.670;2024-01-27T02:17:00;3.70;93.20
46816;DHT22;32787;53.316;8.670;2024-01-27T02:19:26;3.80;93.20
46816;DHT22;32787;53.316;8.670;2024-01-27T02:21:52;3.70;93.10
46816;DHT22;32787;53.316;8.670;2024-01-27T02:24:17;3.70;93.00
46816;DHT22;32787;53.316;8.670;2024-01-27T02:26:43;3.70;93.00
46816;DHT22;32787;53.316;8.670;2024-01-27T02:29:09;3.70;93.00
46816;DHT22;32787;53.316;8.670;2024-01-27T02:31:34;3.80;93.00
46816;DHT22;32787;53.316;8.670;2024-01-27T02:34:00;3.70;93.00
46816;DHT22;32787;53.316;8.670;2024-01-27T02:36:25;3.70;93.00
46816;DHT22;32787;53.316;8.670;2024-01-27T02:38:51;3.80;93.00
46816;DHT22;32787;53.316;8.670;2024-01-27T02:41:17;3.80;93.10
46816;DHT22;32787;53.316;8.670;2024-01-27T02:43:42;3.90;92.90
46816;DHT22;32787;53.316;8.670;2024-01-27T02:46:11;3.90;92.80
46816;DHT22;32787;53.316;8.670;2024-01-27T02:48:43;3.90;92.80
46816;DHT22;32787;53.316;8.670;2024-01-27T02:51:09;3.90;92.70
46816;DHT22;32787;53.316;8.670;2024-01-27T02:53:34;3.90;92.70
46816;DHT22;32787;53.316;8.670;2024-01-27T02:56:00;3.90;92.80
46816;DHT22;32787;53.316;8.670;2024-01-27T02:58:26;3.90;92.70
46816;DHT22;32787;53.316;8.670;2024-01-27T03:00:52;3.80;92.70
46816;DHT22;32787;53.316;8.670;2024-01-27T03:03:18;3.90;92.70
46816;DHT22;32787;53.316;8.670;2024-01-27T03:05:43;3.90;92.70
46816;DHT22;32787;53.316;8.670;2024-01-27T03:08:09;3.80;92.70
46816;DHT22;32787;53.316;8.670;2024-01-27T03:10:35;3.80;92.50
46816;DHT22;32787;53.316;8.670;2024-01-27T03:13:00;3.80;92.70
46816;DHT22;32787;53.316;8.670;2024-01-27T03:15:26;3.90;92.70
46816;DHT22;32787;53.316;8.670;2024-01-27T03:17:52;3.60;92.60
46816;DHT22;32787;53.316;8.670;2024-01-27T03:20:17;3.50;92.80
46816;DHT22;32787;53.316;8.670;2024-01-27T03:22:43;3.60;93.20
46816;DHT22;32787;53.316;8.670;2024-01-27T03:25:10;3.70;93.00
46816;DHT22;32787;53.316;8.670;2024-01-27T03:27:36;3.70;92.80
46816;DHT22;32787;53.316;8.670;2024-01-27T03:30:02;3.70;92.70
46816;DHT22;32787;53.316;8.670;2024-01-27T03:32:32;3.70;93.00
46816;DHT22;32787;53.316;8.670;2024-01-27T03:34:59;3.80;92.80
46816;DHT22;32787;53.316;8.670;2024-01-27T03:37:24;3.70;92.80
46816;DHT22;32787;53.316;8.670;2024-01-27T03:39:50;3.40;92.60
46816;DHT22;32787;53.316;8.670;2024-01-27T03:42:16;3.40;92.80
46816;DHT22;32787;53.316;8.670;2024-01-27T03:44:41;3.50;92.80
46816;DHT22;32787;53.316;8.670;2024-01-27T03:47:07;3.40;92.50
46816;DHT22;32787;53.316;8.670;2024-01-27T03:49:33;3.30;92.80
46816;DHT22;32787;53.316;8.670;2024-01-27T03:51:58;3.20;92.90
46816;DHT22;32787;53.316;8.670;2024-01-27T03:54:24;3.10;92.90
46816;DHT22;32787;53.316;8.670;2024-01-27T03:56:49;3.20;93.10
46816;DHT22;32787;53.316;8.670;2024-01-27T03:59:15;3.30;93.20
46816;DHT22;32787;53.316;8.670;2024-01-27T04:01:41;3.50;93.10
46816;DHT22;32787;53.316;8.670;2024-01-27T04:04:06;3.50;92.90
46816;DHT22;32787;53.316;8.670;2024-01-27T04:06:39;3.40;92.80
46816;DHT22;32787;53.316;8.670;2024-01-27T04:09:05;3.40;92.60
46816;DHT22;32787;53.316;8.670;2024-01-27T04:11:35;3.40;92.90
46816;DHT22;32787;53.316;8.670;2024-01-27T04:14:03;3.20;92.60
46816;DHT22;32787;53.316;8.670;2024-01-27T04:16:28;3.10;93.00
46816;DHT22;32787;53.316;8.670;2024-01-27T04:18:54;3.20;93.20
46816;DHT22;32787;53.316;8.670;2024-01-27T04:21:20;3.10;93.30
46816;DHT22;32787;53.316;8.670;2024-01-27T04:23:46;3.10;93.40
46816;DHT22;32787;53.316;8.670;2024-01-27T04:26:11;3.20;93.30
46816;DHT22;32787;53.316;8.670;2024-01-27T04:28:37;3.20;93.30
46816;DHT22;32787;53.316;8.670;2024-01-27T04:31:03;3.20;93.10
46816;DHT22;32787;53.316;8.670;2024-01-27T04:33:29;3.00;92.90
46816;DHT22;32787;53.316;8.670;2024-01-27T04:35:54;3.00;93.00
46816;DHT22;32787;53.316;8.670;2024-01-27T04:38:20;3.00;93.40
46816;DHT22;32787;53.316;8.670;2024-01-27T04:40:46;3.00;93.10
46816;DHT22;32787;53.316;8.670;2024-01-27T04:43:15;2.90;93.10
46816;DHT22;32787;53.316;8.670;2024-01-27T04:45:41;2.90;93.20
46816;DHT22;32787;53.316;8.670;2024-01-27T04:48:07;2.90;93.10
46816;DHT22;32787;53.316;8.670;2024-01-27T04:50:33;2.90;93.50
46816;DHT22;32787;53.316;8.670;2024-01-27T04:52:59;2.90;93.30
46816;DHT22;32787;53.316;8.670;2024-01-27T04:55:25;2.70;93.30
46816;DHT22;32787;53.316;8.670;2024-01-27T04:57:50;2.40;93.50
46816;DHT22;32787;53.316;8.670;2024-01-27T05:00:16;2.50;93.90
46816;DHT22;32787;53.316;8.670;2024-01-27T05:02:42;2.40;93.80
46816;DHT22;32787;53.316;8.670;2024-01-27T05:05:08;2.40;94.00
46816;DHT22;32787;53.316;8.670;2024-01-27T05:07:34;2.30;94.20
46816;DHT22;32787;53.316;8.670;2024-01-27T05:10:00;2.30;94.20
46816;DHT22;32787;53.316;8.670;2024-01-27T05:12:26;2.30;94.20
46816;DHT22;32787;53.316;8.670;2024-01-27T05:14:51;2.40;94.20
46816;DHT22;32787;53.316;8.670;2024-01-27T05:17:17;2.50;94.10
46816;DHT22;32787;53.316;8.670;2024-01-27T05:19:43;2.50;93.90
46816;DHT22;32787;53.316;8.670;2024-01-27T05:22:09;2.40;94.00
46816;DHT22;32787;53.316;8.670;2024-01-27T05:24:35;2.40;93.90
46816;DHT22;32787;53.316;8.670;2024-01-27T05:27:00;2.20;94.10
46816;DHT22;32787;53.316;8.670;2024-01-27T05:29:27;2.30;94.20
46816;DHT22;32787;53.316;8.670;2024-01-27T05:31:53;2.20;94.20
46816;DHT22;32787;53.316;8.670;2024-01-27T05:34:19;2.20;94.30
46816;DHT22;32787;53.316;8.670;2024-01-27T05:36:47;2.10;94.30
46816;DHT22;32787;53.316;8.670;2024-01-27T05:39:13;2.10;94.40
46816;DHT22;32787;53.316;8.670;2024-01-27T05:41:39;2.00;94.60
46816;DHT22;32787;53.316;8.670;2024-01-27T05:44:04;2.00;94.60
46816;DHT22;32787;53.316;8.670;2024-01-27T05:46:30;1.90;94.80
46816;DHT22;32787;53.316;8.670;2024-01-27T05:48:55;1.90;94.80
46816;DHT22;32787;53.316;8.670;2024-01-27T05:51:26;2.00;94.90
46816;DHT22;32787;53.316;8.670;2024-01-27T05:53:52;2.30;95.00
46816;DHT22;32787;53.316;8.670;2024-01-27T05:56:18;2.20;94.50
46816;DHT22;32787;53.316;8.670;2024-01-27T05:58:49;2.20;94.50
46816;DHT22;32787;53.316;8.670;2024-01-27T06:01:17;2.10;94.40
46816;DHT22;32787;53.316;8.670;2024-01-27T06:03:44;2.10;94.50
46816;DHT22;32787;53.316;8.670;2024-01-27T06:06:10;2.10;94.30
46816;DHT22;32787;53.316;8.670;2024-01-27T06:08:36;2.10;94.30
46816;DHT22;32787;53.316;8.670;2024-01-27T06:11:02;2.00;94.50
46816;DHT22;32787;53.316;8.670;2024-01-27T06:13:29;2.10;94.50
46816;DHT22;32787;53.316;8.670;2024-01-27T06:15:54;1.90;94.50
46816;DHT22;32787;53.316;8.670;2024-01-27T06:18:20;2.00;94.70
46816;DHT22;32787;53.316;8.670;2024-01-27T06:20:46;1.90;94.70
46816;DHT22;32787;53.316;8.670;2024-01-27T06:23:12;1.90;94.80
46816;DHT22;32787;53.316;8.670;2024-01-27T06:25:37;2.10;94.80
46816;DHT22;32787;53.316;8.670;2024-01-27T06:28:03;2.30;94.60
46816;DHT22;32787;53.316;8.670;2024-01-27T06:30:29;2.20;94.50
46816;DHT22;32787;53.316;8.670;2024-01-27T06:32:54;2.00;94.50
46816;DHT22;32787;53.316;8.670;2024-01-27T06:35:20;2.10;94.50
46816;DHT22;32787;53.316;8.670;2024-01-27T06:37:46;1.90;94.60
46816;DHT22;32787;53.316;8.670;2024-01-27T06:40:12;2.30;94.70
46816;DHT22;32787;53.316;8.670;2024-01-27T06:42:38;2.40;94.60
46816;DHT22;32787;53.316;8.670;2024-01-27T06:45:04;2.40;94.40
46816;DHT22;32787;53.316;8.670;2024-01-27T06:47:30;2.50;94.30
46816;DHT22;32787;53.316;8.670;2024-01-27T06:49:56;2.40;94.10
46816;DHT22;32787;53.316;8.670;2024-01-27T06:52:21;2.40;94.10
46816;DHT22;32787;53.316;8.670;2024-01-27T06:54:47;2.20;94.10
46816;DHT22;32787;53.316;8.670;2024-01-27T06:57:23;2.40;94.30
46816;DHT22;32787;53.316;8.670;2024-01-27T06:59:51;2.40;94.30
46816;DHT22;32787;53.316;8.670;2024-01-27T07:02:28;2.50;94.40
46816;DHT22;32787;53.316;8.670;2024-01-27T07:04:56;2.50;94.10
46816;DHT22;32787;53.316;8.670;2024-01-27T07:07:27;2.50;94.20
46816;DHT22;32787;53.316;8.670;2024-01-27T07:09:54;2.50;94.00
46816;DHT22;32787;53.316;8.670;2024-01-27T07:12:20;2.50;94.00
46816;DHT22;32787;53.316;8.670;2024-01-27T07:14:46;2.50;94.00
46816;DHT22;32787;53.316;8.670;2024-01-27T07:17:12;2.50;94.10
46816;DHT22;32787;53.316;8.670;2024-01-27T07:19:38;2.60;94.10
46816;DHT22;32787;53.316;8.670;2024-01-27T07:22:03;2.50;93.90
46816;DHT22;32787;53.316;8.670;2024-01-27T07:24:29;2.40;93.70
46816;DHT22;32787;53.316;8.670;2024-01-27T07:26:55;2.40;93.90
46816;DHT22;32787;53.316;8.670;2024-01-27T07:29:20;2.40;94.00
46816;DHT22;32787;53.316;8.670;2024-01-27T07:31:46;2.40;94.10
46816;DHT22;32787;53.316;8.670;2024-01-27T07:34:13;2.40;94.10
46816;DHT22;32787;53.316;8.670;2024-01-27T07:36:38;2.20;93.90
46816;DHT22;32787;53.316;8.670;2024-01-27T07:39:04;2.20;94.10
46816;DHT22;32787;53.316;8.670;2024-01-27T07:41:33;2.40;94.20
46816;DHT22;32787;53.316;8.670;2024-01-27T07:44:10;2.30;94.10
46816;DHT22;32787;53.316;8.670;2024-01-27T07:46:37;2.40;94.20
46816;DHT22;32787;53.316;8.670;2024-01-27T07:49:03;2.40;94.10
46816;DHT22;32787;53.316;8.670;2024-01-27T07:51:29;2.30;94.10
46816;DHT22;32787;53.316;8.670;2024-01-27T07:53:55;2.20;94.10
46816;DHT22;32787;53.316;8.670;2024-01-27T07:56:21;2.30;94.40
46816;DHT22;32787;53.316;8.670;2024-01-27T07:58:46;2.20;94.40
46816;DHT22;32787;53.316;8.670;2024-01-27T08:01:16;2.30;94.40
46816;DHT22;32787;53.316;8.670;2024-01-27T08:03:42;2.40;94.50
46816;DHT22;32787;53.316;8.670;2024-01-27T08:06:13;2.40;94.50
46816;DHT22;32787;53.316;8.670;2024-01-27T08:08:39;2.50;94.50
46816;DHT22;32787;53.316;8.670;2024-01-27T08:11:05;2.40;94.10
46816;DHT22;32787;53.316;8.670;2024-01-27T08:13:30;2.20;94.20
46816;DHT22;32787;53.316;8.670;2024-01-27T08:15:56;2.40;94.40
46816;DHT22;32787;53.316;8.670;2024-01-27T08:18:22;2.40;94.50
46816;DHT22;32787;53.316;8.670;2024-01-27T08:20:47;2.50;94.50
46816;DHT22;32787;53.316;8.670;2024-01-27T08:23:13;2.40;94.30
46816;DHT22;32787;53.316;8.670;2024-01-27T08:25:38;2.50;94.40
46816;DHT22;32787;53.316;8.670;2024-01-27T08:28:05;2.60;94.40
46816;DHT22;32787;53.316;8.670;2024-01-27T08:30:30;2.80;94.30
46816;DHT22;32787;53.316;8.670;2024-01-27T08:32:56;2.90;93.90
46816;DHT22;32787;53.316;8.670;2024-01-27T08:35:22;2.80;93.70
46816;DHT22;32787;53.316;8.670;2024-01-27T08:37:48;2.90;93.50
46816;DHT22;32787;53.316;8.670;2024-01-27T08:40:14;2.90;93.60
46816;DHT22;32787;53.316;8.670;2024-01-27T08:42:39;2.90;93.40
46816;DHT22;32787;53.316;8.670;2024-01-27T08:45:06;2.90;93.20
46816;DHT22;32787;53.316;8.670;2024-01-27T08:47:32;2.90;93.60
46816;DHT22;32787;53.316;8.670;2024-01-27T08:49:57;3.00;93.40
46816;DHT22;32787;53.316;8.670;2024-01-27T08:52:23;3.10;93.30
46816;DHT22;32787;53.316;8.670;2024-01-27T08:54:49;3.10;93.20
46816;DHT22;32787;53.316;8.670;2024-01-27T08:57:14;3.10;93.10
46816;DHT22;32787;53.316;8.670;2024-01-27T08:59:40;3.20;93.50
46816;DHT22;32787;53.316;8.670;2024-01-27T09:02:05;3.30;93.30
46816;DHT22;32787;53.316;8.670;2024-01-27T09:04:31;3.40;93.20
46816;DHT22;32787;53.316;8.670;2024-01-27T09:06:57;3.30;93.00
46816;DHT22;32787;53.316;8.670;2024-01-27T09:09:23;3.50;93.10
46816;DHT22;32787;53.316;8.670;2024-01-27T09:11:49;3.60;92.80
46816;DHT22;32787;53.316;8.670;2024-01-27T09:14:15;3.90;92.60
46816;DHT22;32787;53.316;8.670;2024-01-27T09:16:41;4.00;92.10
46816;DHT22;32787;53.316;8.670;2024-01-27T09:19:07;4.00;91.70
46816;DHT22;32787;53.316;8.670;2024-01-27T09:21:33;4.00;91.80
46816;DHT22;32787;53.316;8.670;2024-01-27T09:23:59;4.00;91.90
46816;DHT22;32787;53.316;8.670;2024-01-27T09:26:27;3.90;91.60
46816;DHT22;32787;53.316;8.670;2024-01-27T09:28:52;4.00;91.90
46816;DHT22;32787;53.316;8.670;2024-01-27T09:31:24;4.00;91.90
46816;DHT22;32787;53.316;8.670;2024-01-27T09:33:51;4.20;91.90
46816;DHT22;32787;53.316;8.670;2024-01-27T09:36:18;4.20;91.70
46816;DHT22;32787;53.316;8.670;2024-01-27T09:38:44;4.20;91.80
46816;DHT22;32787;53.316;8.670;2024-01-27T09:41:11;4.40;91.40
46816;DHT22;32787;53.316;8.670;2024-01-27T09:43:37;4.40;91.20
46816;DHT22;32787;53.316;8.670;2024-01-27T09:46:05;4.40;90.90
46816;DHT22;32787;53.316;8.670;2024-01-27T09:48:31;4.40;91.00
46816;DHT22;32787;53.316;8.670;2024-01-27T09:50:58;4.50;90.90
46816;DHT22;32787;53.316;8.670;2024-01-27T09:53:24;4.60;91.00
46816;DHT22;32787;53.316;8.670;2024-01-27T09:55:50;4.70;90.70
46816;DHT22;32787;53.316;8.670;2024-01-27T09:58:16;5.00;90.30
46816;DHT22;32787;53.316;8.670;2024-01-27T10:00:43;5.00;89.60
46816;DHT22;32787;53.316;8.670;2024-01-27T10:03:09;4.90;89.80
46816;DHT22;32787;53.316;8.670;2024-01-27T10:05:35;4.80;90.00
46816;DHT22;32787;53.316;8.670;2024-01-27T10:08:02;4.80;90.40
46816;DHT22;32787;53.316;8.670;2024-01-27T10:10:31;4.80;90.40
46816;DHT22;32787;53.316;8.670;2024-01-27T10:12:58;4.70;90.70
46816;DHT22;32787;53.316;8.670;2024-01-27T10:15:26;4.80;90.70
46816;DHT22;32787;53.316;8.670;2024-01-27T10:17:52;4.80;90.40
46816;DHT22;32787;53.316;8.670;2024-01-27T10:20:18;5.00;90.90
46816;DHT22;32787;53.316;8.670;2024-01-27T10:22:45;4.90;90.50
46816;DHT22;32787;53.316;8.670;2024-01-27T10:25:11;5.10;90.40
46816;DHT22;32787;53.316;8.670;2024-01-27T10:27:37;5.10;90.40
46816;DHT22;32787;53.316;8.670;2024-01-27T10:30:03;5.20;90.10
46816;DHT22;32787;53.316;8.670;2024-01-27T10:32:29;5.30;89.70
46816;DHT22;32787;53.316;8.670;2024-01-27T10:35:05;5.30;89.70
46816;DHT22;32787;53.316;8.670;2024-01-27T10:37:37;5.40;90.00
46816;DHT22;32787;53.316;8.670;2024-01-27T10:40:04;5.40;90.00
46816;DHT22;32787;53.316;8.670;2024-01-27T10:42:30;5.40;89.70
46816;DHT22;32787;53.316;8.670;2024-01-27T10:44:59;5.50;89.70
46816;DHT22;32787;53.316;8.670;2024-01-27T10:47:29;5.50;89.80
46816;DHT22;32787;53.316;8.670;2024-01-27T10:49:59;5.60;89.70
46816;DHT22;32787;53.316;8.670;2024-01-27T10:52:31;5.60;89.30
46816;DHT22;32787;53.316;8.670;2024-01-27T10:55:01;5.70;89.50
46816;DHT22;32787;53.316;8.670;2024-01-27T10:57:30;5.70;89.60
46816;DHT22;32787;53.316;8.670;2024-01-27T11:00:00;5.70;88.90
46816;DHT22;32787;53.316;8.670;2024-01-27T11:02:28;5.80;89.20
46816;DHT22;32787;53.316;8.670;2024-01-27T11:05:00;5.90;88.90
46816;DHT22;32787;53.316;8.670;2024-01-27T11:07:27;5.90;88.80
46816;DHT22;32787;53.316;8.670;2024-01-27T11:09:53;5.90;88.80
46816;DHT22;32787;53.316;8.670;2024-01-27T11:12:21;6.00;89.00
46816;DHT22;32787;53.316;8.670;2024-01-27T11:14:47;6.00;88.80
46816;DHT22;32787;53.316;8.670;2024-01-27T11:17:14;6.00;88.60
46816;DHT22;32787;53.316;8.670;2024-01-27T11:19:41;5.90;88.60
46816;DHT22;32787;53.316;8.670;2024-01-27T11:22:06;6.10;88.70
46816;DHT22;32787;53.316;8.670;2024-01-27T11:24:32;6.10;88.80
46816;DHT22;32787;53.316;8.670;2024-01-27T11:29:27;6.20;88.70
46816;DHT22;32787;53.316;8.670;2024-01-27T11:31:55;6.30;88.60
46816;DHT22;32787;53.316;8.670;2024-01-27T11:34:21;6.50;88.60
46816;DHT22;32787;53.316;8.670;2024-01-27T11:36:47;6.40;88.10
46816;DHT22;32787;53.316;8.670;2024-01-27T11:39:27;6.40;88.00
46816;DHT22;32787;53.316;8.670;2024-01-27T11:41:53;6.50;87.70
46816;DHT22;32787;53.316;8.670;2024-01-27T11:44:19;6.50;87.50
46816;DHT22;32787;53.316;8.670;2024-01-27T11:46:45;6.50;87.60
46816;DHT22;32787;53.316;8.670;2024-01-27T11:49:17;6.60;87.20
46816;DHT22;32787;53.316;8.670;2024-01-27T11:51:43;6.60;87.80
46816;DHT22;32787;53.316;8.670;2024-01-27T11:54:09;6.70;87.70
46816;DHT22;32787;53.316;8.670;2024-01-27T11:56:35;6.70;87.40
46816;DHT22;32787;53.316;8.670;2024-01-27T11:59:00;6.80;87.20
46816;DHT22;32787;53.316;8.670;2024-01-27T12:01:26;6.70;87.10
46816;DHT22;32787;53.316;8.670;2024-01-27T12:03:52;6.80;87.40
46816;DHT22;32787;53.316;8.670;2024-01-27T12:06:18;6.80;87.30
46816;DHT22;32787;53.316;8.670;2024-01-27T12:08:43;6.80;86.90
46816;DHT22;32787;53.316;8.670;2024-01-27T12:11:16;6.80;86.80
46816;DHT22;32787;53.316;8.670;2024-01-27T12:13:41;6.80;86.80
46816;DHT22;32787;53.316;8.670;2024-01-27T12:16:08;6.90;87.20
46816;DHT22;32787;53.316;8.670;2024-01-27T12:18:35;6.90;87.30
46816;DHT22;32787;53.316;8.670;2024-01-27T12:21:01;6.90;87.10
46816;DHT22;32787;53.316;8.670;2024-01-27T12:23:26;7.00;87.30
46816;DHT22;32787;53.316;8.670;2024-01-27T12:25:55;7.00;87.30
46816;DHT22;32787;53.316;8.670;2024-01-27T12:28:24;7.10;87.00
46816;DHT22;32787;53.316;8.670;2024-01-27T12:30:53;7.10;86.90
46816;DHT22;32787;53.316;8.670;2024-01-27T12:33:19;7.20;87.20
46816;DHT22;32787;53.316;8.670;2024-01-27T12:35:49;7.20;87.10
46816;DHT22;32787;53.316;8.670;2024-01-27T12:38:17;7.40;86.80
46816;DHT22;32787;53.316;8.670;2024-01-27T12:40:43;7.40;86.20
46816;DHT22;32787;53.316;8.670;2024-01-27T12:43:09;7.40;85.90
46816;DHT22;32787;53.316;8.670;2024-01-27T12:45:35;7.40;85.50
46816;DHT22;32787;53.316;8.670;2024-01-27T12:48:01;7.40;85.90
46816;DHT22;32787;53.316;8.670;2024-01-27T12:50:27;7.40;86.00
46816;DHT22;32787;53.316;8.670;2024-01-27T12:52:53;7.40;85.90
46816;DHT22;32787;53.316;8.670;2024-01-27T12:55:19;7.40;86.10
46816;DHT22;32787;53.316;8.670;2024-01-27T12:57:46;7.50;86.00
46816;DHT22;32787;53.316;8.670;2024-01-27T13:00:13;7.60;85.50
46816;DHT22;32787;53.316;8.670;2024-01-27T13:02:40;7.60;85.70
46816;DHT22;32787;53.316;8.670;2024-01-27T13:05:06;7.60;85.60
46816;DHT22;32787;53.316;8.670;2024-01-27T13:07:32;7.60;85.40
46816;DHT22;32787;53.316;8.670;2024-01-27T13:09:58;7.80;85.20
46816;DHT22;32787;53.316;8.670;2024-01-27T13:12:24;7.70;84.60
46816;DHT22;32787;53.316;8.670;2024-01-27T13:14:50;7.80;84.50
46816;DHT22;32787;53.316;8.670;2024-01-27T13:17:15;7.90;84.60
46816;DHT22;32787;53.316;8.670;2024-01-27T13:19:41;7.90;84.30
46816;DHT22;32787;53.316;8.670;2024-01-27T13:22:07;7.90;84.10
46816;DHT22;32787;53.316;8.670;2024-01-27T13:24:33;7.90;83.90
46816;DHT22;32787;53.316;8.670;2024-01-27T13:26:59;7.80;84.30
46816;DHT22;32787;53.316;8.670;2024-01-27T13:29:25;7.90;84.90
46816;DHT22;32787;53.316;8.670;2024-01-27T13:31:52;7.90;84.50
46816;DHT22;32787;53.316;8.670;2024-01-27T13:34:18;7.90;84.10
46816;DHT22;32787;53.316;8.670;2024-01-27T13:36:44;7.90;84.20
46816;DHT22;32787;53.316;8.670;2024-01-27T13:39:09;7.90;84.50
46816;DHT22;32787;53.316;8.670;2024-01-27T13:41:35;7.90;84.40
46816;DHT22;32787;53.316;8.670;2024-01-27T13:44:01;7.90;84.50
46816;DHT22;32787;53.316;8.670;2024-01-27T13:46:27;7.90;84.70
46816;DHT22;32787;53.316;8.670;2024-01-27T13:48:53;7.90;84.60
46816;DHT22;32787;53.316;8.670;2024-01-27T13:51:18;7.80;84.40
46816;DHT22;32787;53.316;8.670;2024-01-27T13:53:44;7.80;84.50
46816;DHT22;32787;53.316;8.670;2024-01-27T13:56:10;7.90;84.50
46816;DHT22;32787;53.316;8.670;2024-01-27T13:58:36;7.90;84.60
46816;DHT22;32787;53.316;8.670;2024-01-27T14:01:01;7.90;84.30
46816;DHT22;32787;53.316;8.670;2024-01-27T14:03:29;8.00;84.30
46816;DHT22;32787;53.316;8.670;2024-01-27T14:05:54;7.90;84.40
46816;DHT22;32787;53.316;8.670;2024-01-27T14:08:20;7.90;84.50
46816;DHT22;32787;53.316;8.670;2024-01-27T14:10:45;7.90;84.20
46816;DHT22;32787;53.316;8.670;2024-01-27T14:13:13;7.90;83.70
46816;DHT22;32787;53.316;8.670;2024-01-27T14:15:39;8.00;83.90
46816;DHT22;32787;53.316;8.670;2024-01-27T14:18:05;7.90;83.90
46816;DHT22;32787;53.316;8.670;2024-01-27T14:20:35;7.80;83.90
46816;DHT22;32787;53.316;8.670;2024-01-27T14:23:03;7.90;83.90
46816;DHT22;32787;53.316;8.670;2024-01-27T14:25:29;7.90;84.10
46816;DHT22;32787;53.316;8.670;2024-01-27T14:27:54;7.80;84.40
46816;DHT22;32787;53.316;8.670;2024-01-27T14:30:20;7.70;84.50
46816;DHT22;32787;53.316;8.670;2024-01-27T14:32:46;7.60;85.20
46816;DHT22;32787;53.316;8.670;2024-01-27T14:35:11;7.60;85.20
46816;DHT22;32787;53.316;8.670;2024-01-27T14:37:37;7.60;85.40
46816;DHT22;32787;53.316;8.670;2024-01-27T14:40:04;7.70;85.10
46816;DHT22;32787;53.316;8.670;2024-01-27T14:42:30;7.70;84.60
46816;DHT22;32787;53.316;8.670;2024-01-27T14:44:56;7.60;84.60
46816;DHT22;32787;53.316;8.670;2024-01-27T14:47:21;7.60;84.80
46816;DHT22;32787;53.316;8.670;2024-01-27T14:49:47;7.70;84.50
46816;DHT22;32787;53.316;8.670;2024-01-27T14:52:13;7.70;84.60
46816;DHT22;32787;53.316;8.670;2024-01-27T14:54:39;7.40;85.30
46816;DHT22;32787;53.316;8.670;2024-01-27T14:57:05;7.40;85.40
46816;DHT22;32787;53.316;8.670;2024-01-27T14:59:34;7.50;85.00
46816;DHT22;32787;53.316;8.670;2024-01-27T15:02:00;7.40;85.10
46816;DHT22;32787;53.316;8.670;2024-01-27T15:04:26;7.30;85.40
46816;DHT22;32787;53.316;8.670;2024-01-27T15:06:55;7.30;85.30
46816;DHT22;32787;53.316;8.670;2024-01-27T15:09:22;7.20;85.50
46816;DHT22;32787;53.316;8.670;2024-01-27T15:11:49;7.20;85.50
46816;DHT22;32787;53.316;8.670;2024-01-27T15:14:15;7.10;85.50
46816;DHT22;32787;53.316;8.670;2024-01-27T15:16:40;7.10;85.40
46816;DHT22;32787;53.316;8.670;2024-01-27T15:19:06;7.10;85.20
46816;DHT22;32787;53.316;8.670;2024-01-27T15:21:32;7.10;85.80
46816;DHT22;32787;53.316;8.670;2024-01-27T15:23:58;7.10;85.40
46816;DHT22;32787;53.316;8.670;2024-01-27T15:26:24;6.80;85.90
46816;DHT22;32787;53.316;8.670;2024-01-27T15:28:49;6.70;86.30
46816;DHT22;32787;53.316;8.670;2024-01-27T15:31:16;6.60;86.70
46816;DHT22;32787;53.316;8.670;2024-01-27T15:33:41;6.40;86.80
46816;DHT22;32787;53.316;8.670;2024-01-27T15:36:08;6.40;87.30
46816;DHT22;32787;53.316;8.670;2024-01-27T15:38:34;6.40;87.10
46816;DHT22;32787;53.316;8.670;2024-01-27T15:40:59;6.60;86.90